Time;durP1;ratioP1;P1;durP2;ratioP2;P2;SDS_P1;SDS_P2;PMS_P1;PMS_P2;Temp;Humidity;BMP_temperature;BMP_pressure;BME280_temperature;BME280_humidity;BME280_pressure;Samples;Min_cycle;Max_cycle;Signal;HPM_P1;HPM_P2
2023/03/21 00:02:05;;;;;;;;;;;9.90;99.90;;;;;;5055494;28;19919;-69
2023/03/21 00:04:31;;;;;;;;;;;9.90;99.90;;;;;;5055060;28;19916;-69
2023/03/21 00:06:57;;;;;;;;;;;9.90;99.90;;;;;;5055871;28;20568;-70
2023/03/21 00:09:23;;;;;;;;;;;9.80;99.90;;;;;;5055929;28;19962;-69
2023/03/21 00:11:48;;;;;;;;;;;9.80;99.90;;;;;;5055433;28;19908;-69
2023/03/21 00:14:17;;;;;;;;;;;9.90;99.90;;;;;;5055389;28;19959;-72
2023/03/21 00:16:44;;;;;;;;;;;9.80;99.90;;;;;;5055540;28;19912;-69
2023/03/21 00:19:10;;;;;;;;;;;9.80;99.90;;;;;;5054977;28;19956;-69
2023/03/21 00:21:37;;;;;;;;;;;9.80;99.90;;;;;;5055294;28;19920;-69
2023/03/21 00:24:03;;;;;;;;;;;9.80;99.90;;;;;;5055644;28;19916;-70
2023/03/21 00:26:29;;;;;;;;;;;9.80;99.90;;;;;;5055346;28;19990;-69
2023/03/21 00:28:54;;;;;;;;;;;9.70;99.90;;;;;;5055452;28;20327;-69
2023/03/21 00:31:20;;;;;;;;;;;9.80;99.90;;;;;;5055810;28;19909;-69
2023/03/21 00:33:46;;;;;;;;;;;9.70;99.90;;;;;;5055654;28;19970;-69
2023/03/21 00:36:11;;;;;;;;;;;9.70;99.90;;;;;;5056157;28;19917;-69
2023/03/21 00:38:37;;;;;;;;;;;9.60;99.90;;;;;;5056075;28;19909;-69
2023/03/21 00:41:07;;;;;;;;;;;9.60;99.90;;;;;;5055676;28;20323;-68
2023/03/21 00:43:32;;;;;;;;;;;9.60;99.90;;;;;;5056213;28;20354;-69
2023/03/21 00:45:58;;;;;;;;;;;9.60;99.90;;;;;;5056073;28;19909;-69
2023/03/21 00:48:24;;;;;;;;;;;9.60;99.90;;;;;;5056493;28;20362;-69
2023/03/21 00:50:51;;;;;;;;;;;9.70;99.90;;;;;;5055595;28;19912;-72
2023/03/21 00:53:17;;;;;;;;;;;9.60;99.90;;;;;;5054274;28;20459;-69
2023/03/21 00:55:43;;;;;;;;;;;9.50;99.90;;;;;;5054670;28;19964;-69
2023/03/21 00:58:09;;;;;;;;;;;9.50;99.90;;;;;;5054406;28;19948;-70
2023/03/21 01:00:36;;;;;;;;;;;9.50;99.90;;;;;;5054587;28;19920;-69
2023/03/21 01:03:09;;;;;;;;;;;9.50;99.90;;;;;;5054355;28;19944;-69
2023/03/21 01:08:25;;;;;;;;;;;9.50;99.90;;;;;;5054880;28;19974;-69
2023/03/21 01:10:51;;;;;;;;;;;9.50;99.90;;;;;;5054043;28;19913;-69
2023/03/21 01:13:18;;;;;;;;;;;9.50;99.90;;;;;;5054300;28;19955;-69
2023/03/21 01:15:46;;;;;;;;;;;9.40;99.90;;;;;;5054492;28;20114;-69
2023/03/21 01:18:12;;;;;;;;;;;9.40;99.90;;;;;;5054438;28;19992;-71
2023/03/21 01:20:40;;;;;;;;;;;9.40;99.90;;;;;;5054262;28;19915;-77
2023/03/21 01:23:06;;;;;;;;;;;9.40;99.90;;;;;;5054015;28;19917;-71
2023/03/21 01:25:31;;;;;;;;;;;9.40;99.90;;;;;;5054154;28;19920;-69
2023/03/21 01:27:57;;;;;;;;;;;9.30;99.90;;;;;;5054255;28;19915;-70
2023/03/21 01:30:23;;;;;;;;;;;9.30;99.90;;;;;;5053658;28;19909;-69
2023/03/21 01:32:49;;;;;;;;;;;9.20;99.90;;;;;;5053894;28;20011;-69
2023/03/21 01:35:14;;;;;;;;;;;9.20;99.90;;;;;;5053638;28;19983;-69
2023/03/21 01:37:40;;;;;;;;;;;9.30;99.90;;;;;;5053493;28;19909;-69
2023/03/21 01:40:11;;;;;;;;;;;9.20;99.90;;;;;;5051869;28;19958;-69
2023/03/21 01:42:37;;;;;;;;;;;9.40;99.90;;;;;;5052047;28;19909;-69
2023/03/21 01:45:05;;;;;;;;;;;9.30;99.90;;;;;;5051878;28;19908;-69
2023/03/21 01:47:31;;;;;;;;;;;9.30;99.90;;;;;;5052058;28;19908;-69
2023/03/21 01:50:00;;;;;;;;;;;9.30;99.90;;;;;;5050684;28;19931;-69
2023/03/21 01:52:28;;;;;;;;;;;9.40;99.90;;;;;;5050766;28;20299;-69
2023/03/21 01:54:55;;;;;;;;;;;9.30;99.90;;;;;;5052229;28;19969;-69
2023/03/21 01:57:23;;;;;;;;;;;9.30;99.90;;;;;;5052545;28;19909;-69
2023/03/21 01:59:50;;;;;;;;;;;9.20;99.90;;;;;;5051855;28;20012;-69
2023/03/21 02:02:23;;;;;;;;;;;9.20;99.90;;;;;;5050827;28;19909;-69
2023/03/21 02:04:56;;;;;;;;;;;9.20;99.90;;;;;;5052763;28;19909;-69
2023/03/21 02:07:35;;;;;;;;;;;9.20;99.90;;;;;;5054067;28;19919;-68
2023/03/21 02:10:03;;;;;;;;;;;9.20;99.90;;;;;;5053676;28;19923;-71
2023/03/21 02:12:30;;;;;;;;;;;9.10;99.90;;;;;;5053061;28;19909;-69
2023/03/21 02:14:56;;;;;;;;;;;9.10;99.90;;;;;;5053419;28;20277;-72
2023/03/21 02:17:40;;;;;;;;;;;9.00;99.90;;;;;;5053198;28;19920;-69
2023/03/21 02:20:26;;;;;;;;;;;9.10;99.90;;;;;;5052991;28;19908;-69
2023/03/21 02:23:10;;;;;;;;;;;9.10;99.90;;;;;;5053201;28;19920;-69
2023/03/21 02:25:38;;;;;;;;;;;9.00;99.90;;;;;;5053141;28;19979;-69
2023/03/21 02:28:10;;;;;;;;;;;9.00;99.90;;;;;;5051816;28;19920;-69
2023/03/21 02:30:54;;;;;;;;;;;9.00;99.90;;;;;;5052909;28;19909;-69
2023/03/21 02:33:23;;;;;;;;;;;9.00;99.90;;;;;;5051941;28;19913;-69
2023/03/21 02:35:55;;;;;;;;;;;8.90;99.90;;;;;;5053018;28;19963;-69
2023/03/21 02:38:35;;;;;;;;;;;8.90;99.90;;;;;;5052849;28;20286;-69
2023/03/21 02:41:05;;;;;;;;;;;8.90;99.90;;;;;;5052780;28;19917;-69
2023/03/21 02:43:57;;;;;;;;;;;8.90;99.90;;;;;;5052710;28;19909;-68
2023/03/21 02:46:33;;;;;;;;;;;9.00;99.90;;;;;;5051121;28;19916;-69
2023/03/21 02:49:02;;;;;;;;;;;9.00;99.90;;;;;;5051373;28;20264;-69
2023/03/21 02:51:30;;;;;;;;;;;8.90;99.90;;;;;;5052232;28;19971;-69
2023/03/21 02:54:01;;;;;;;;;;;8.80;99.90;;;;;;5052255;28;19909;-69
2023/03/21 02:56:27;;;;;;;;;;;8.80;99.90;;;;;;5051441;28;19919;-68
2023/03/21 02:58:52;;;;;;;;;;;8.70;99.90;;;;;;5051155;28;20008;-69
2023/03/21 03:01:18;;;;;;;;;;;8.70;99.90;;;;;;5051282;28;19909;-69
2023/03/21 03:03:44;;;;;;;;;;;8.70;99.90;;;;;;5052550;28;19913;-69
2023/03/21 03:06:16;;;;;;;;;;;8.80;99.90;;;;;;5053021;28;19908;-69
2023/03/21 03:08:51;;;;;;;;;;;8.80;99.90;;;;;;5053036;28;19937;-71
2023/03/21 03:11:19;;;;;;;;;;;8.80;99.90;;;;;;5053053;28;19909;-70
2023/03/21 03:14:04;;;;;;;;;;;8.80;99.90;;;;;;5052704;28;19932;-69
2023/03/21 03:16:35;;;;;;;;;;;8.80;99.90;;;;;;5054104;28;19919;-70
2023/03/21 03:19:02;;;;;;;;;;;8.70;99.90;;;;;;5056667;28;20286;-69
2023/03/21 03:21:48;;;;;;;;;;;8.70;99.90;;;;;;5056520;28;20450;-70
2023/03/21 03:24:15;;;;;;;;;;;8.80;99.90;;;;;;5056368;28;20013;-70
2023/03/21 03:26:47;;;;;;;;;;;8.80;99.90;;;;;;5055283;28;19928;-70
2023/03/21 03:29:15;;;;;;;;;;;8.80;99.90;;;;;;5055333;28;19909;-69
2023/03/21 03:32:11;;;;;;;;;;;8.90;99.90;;;;;;5055794;28;20294;-69
2023/03/21 03:34:38;;;;;;;;;;;8.80;99.90;;;;;;5056044;28;19966;-69
2023/03/21 03:37:05;;;;;;;;;;;8.70;99.90;;;;;;5056213;28;19955;-70
2023/03/21 03:39:35;;;;;;;;;;;8.60;99.90;;;;;;5056473;28;19972;-69
2023/03/21 03:42:08;;;;;;;;;;;8.60;99.90;;;;;;5055351;28;19908;-69
2023/03/21 03:44:35;;;;;;;;;;;8.60;99.90;;;;;;5056257;28;19926;-69
2023/03/21 03:47:11;;;;;;;;;;;8.60;99.90;;;;;;5056064;28;19990;-69
2023/03/21 03:49:40;;;;;;;;;;;8.60;99.90;;;;;;5055818;28;19909;-69
2023/03/21 03:52:25;;;;;;;;;;;8.60;99.90;;;;;;5055526;28;19909;-69
2023/03/21 03:54:51;;;;;;;;;;;8.60;99.90;;;;;;5055822;28;19920;-69
2023/03/21 03:57:18;;;;;;;;;;;8.60;99.90;;;;;;5055988;28;20362;-69
2023/03/21 03:59:44;;;;;;;;;;;8.60;99.90;;;;;;5055517;28;19913;-69
2023/03/21 04:02:10;;;;;;;;;;;8.60;99.90;;;;;;5055587;28;19995;-69
2023/03/21 04:04:36;;;;;;;;;;;8.70;99.90;;;;;;5055579;28;19971;-69
2023/03/21 04:07:02;;;;;;;;;;;8.70;99.90;;;;;;5055400;28;19931;-70
2023/03/21 04:09:28;;;;;;;;;;;8.70;99.90;;;;;;5053938;28;19909;-69
2023/03/21 04:11:55;;;;;;;;;;;8.70;99.90;;;;;;5055481;28;19947;-69
2023/03/21 04:14:20;;;;;;;;;;;8.70;99.90;;;;;;5055653;28;19919;-70
2023/03/21 04:16:46;;;;;;;;;;;8.70;99.90;;;;;;5055497;28;19909;-69
2023/03/21 04:19:12;;;;;;;;;;;8.70;99.90;;;;;;5055292;28;19916;-69
2023/03/21 04:21:38;;;;;;;;;;;8.70;99.90;;;;;;5055608;28;19916;-69
2023/03/21 04:24:06;;;;;;;;;;;8.70;99.90;;;;;;5055231;28;19920;-69
2023/03/21 04:26:32;;;;;;;;;;;8.60;99.90;;;;;;5055477;28;20007;-69
2023/03/21 04:29:01;;;;;;;;;;;8.60;99.90;;;;;;5053553;28;20051;-69
2023/03/21 04:31:29;;;;;;;;;;;8.80;99.90;;;;;;5055372;28;19909;-69
2023/03/21 04:33:59;;;;;;;;;;;8.80;99.90;;;;;;5055030;28;20050;-69
2023/03/21 04:36:29;;;;;;;;;;;8.90;99.90;;;;;;5055092;28;19916;-70
2023/03/21 04:38:59;;;;;;;;;;;8.80;99.90;;;;;;5054994;28;19951;-69
2023/03/21 04:41:26;;;;;;;;;;;8.80;99.90;;;;;;5054704;28;20286;-72
2023/03/21 04:43:51;;;;;;;;;;;8.80;99.90;;;;;;5054757;28;19909;-73
2023/03/21 04:46:17;;;;;;;;;;;8.80;99.90;;;;;;5054449;28;20367;-69
2023/03/21 04:48:42;;;;;;;;;;;8.90;99.90;;;;;;5055035;28;19920;-69
2023/03/21 04:51:08;;;;;;;;;;;8.80;99.90;;;;;;5054773;28;20410;-70
2023/03/21 04:53:34;;;;;;;;;;;8.80;99.90;;;;;;5054660;28;19915;-69
2023/03/21 04:55:59;;;;;;;;;;;8.70;99.90;;;;;;5054713;28;20016;-69
2023/03/21 04:58:25;;;;;;;;;;;8.70;99.90;;;;;;5054639;28;20444;-70
2023/03/21 05:00:51;;;;;;;;;;;8.70;99.90;;;;;;5054213;28;20035;-69
2023/03/21 05:03:20;;;;;;;;;;;8.70;99.90;;;;;;5054086;28;19909;-70
2023/03/21 05:05:46;;;;;;;;;;;8.90;99.90;;;;;;5054622;28;19909;-70
2023/03/21 05:08:12;;;;;;;;;;;8.90;99.90;;;;;;5054866;28;19913;-69
2023/03/21 05:10:38;;;;;;;;;;;8.80;99.90;;;;;;5054099;28;20425;-69
2023/03/21 05:13:05;;;;;;;;;;;8.80;99.90;;;;;;5054708;28;19937;-70
2023/03/21 05:15:31;;;;;;;;;;;8.90;99.90;;;;;;5054067;28;19920;-69
2023/03/21 05:18:09;;;;;;;;;;;9.00;99.90;;;;;;5054482;28;19909;-69
2023/03/21 05:20:35;;;;;;;;;;;9.00;99.90;;;;;;5054260;28;20420;-69
2023/03/21 05:23:01;;;;;;;;;;;8.90;99.90;;;;;;5054340;28;19966;-70
2023/03/21 05:25:34;;;;;;;;;;;8.90;99.90;;;;;;5052802;28;20385;-70
2023/03/21 05:28:01;;;;;;;;;;;8.80;99.90;;;;;;5054297;28;19992;-69
2023/03/21 05:30:27;;;;;;;;;;;8.90;99.90;;;;;;5053912;28;19909;-69
2023/03/21 05:32:52;;;;;;;;;;;8.80;99.90;;;;;;5054040;28;19953;-69
2023/03/21 05:35:19;;;;;;;;;;;8.80;99.90;;;;;;5053714;28;19943;-70
2023/03/21 05:37:44;;;;;;;;;;;8.80;99.90;;;;;;5054245;28;19936;-70
2023/03/21 05:40:10;;;;;;;;;;;8.80;99.90;;;;;;5053447;28;19909;-69
2023/03/21 05:42:36;;;;;;;;;;;8.80;99.90;;;;;;5052507;28;20016;-69
2023/03/21 05:45:02;;;;;;;;;;;8.80;99.90;;;;;;5052476;28;19917;-69
2023/03/21 05:47:27;;;;;;;;;;;8.80;99.90;;;;;;5054169;28;20444;-71
2023/03/21 05:49:53;;;;;;;;;;;8.80;99.90;;;;;;5053586;28;19916;-69
2023/03/21 05:52:19;;;;;;;;;;;8.80;99.90;;;;;;5053018;28;19930;-69
2023/03/21 05:54:44;;;;;;;;;;;8.90;99.90;;;;;;5053800;28;19958;-70
2023/03/21 05:57:10;;;;;;;;;;;9.00;99.90;;;;;;5053921;28;19908;-69
2023/03/21 05:59:36;;;;;;;;;;;9.00;99.90;;;;;;5053543;28;20323;-69
2023/03/21 06:02:02;;;;;;;;;;;9.10;99.90;;;;;;5052621;28;19986;-69
2023/03/21 06:04:28;;;;;;;;;;;9.30;99.90;;;;;;5052794;28;19909;-69
2023/03/21 06:06:53;;;;;;;;;;;9.40;99.90;;;;;;5053304;28;20016;-69
2023/03/21 06:09:20;;;;;;;;;;;9.40;99.90;;;;;;5053100;28;19955;-69
2023/03/21 06:11:48;;;;;;;;;;;9.50;99.90;;;;;;5052987;28;20336;-70
2023/03/21 06:14:14;;;;;;;;;;;9.60;99.90;;;;;;5053171;28;19909;-69
2023/03/21 06:16:39;;;;;;;;;;;9.50;99.90;;;;;;5053177;28;20310;-69
2023/03/21 06:19:05;;;;;;;;;;;9.60;99.90;;;;;;5052664;28;19909;-69
2023/03/21 06:21:30;;;;;;;;;;;9.60;99.90;;;;;;5053530;28;19909;-69
2023/03/21 06:23:56;;;;;;;;;;;9.60;99.90;;;;;;5053094;28;19917;-69
2023/03/21 06:26:22;;;;;;;;;;;9.60;99.90;;;;;;5053494;28;19913;-69
2023/03/21 06:28:48;;;;;;;;;;;9.70;99.90;;;;;;5053752;28;19909;-70
2023/03/21 06:31:14;;;;;;;;;;;9.70;99.90;;;;;;5052954;28;20280;-69
2023/03/21 06:33:39;;;;;;;;;;;9.80;99.90;;;;;;5053123;28;19951;-70
2023/03/21 06:36:05;;;;;;;;;;;9.80;99.90;;;;;;5053170;28;19917;-69
2023/03/21 06:38:31;;;;;;;;;;;9.80;99.90;;;;;;5053208;28;19909;-70
2023/03/21 06:40:57;;;;;;;;;;;9.80;99.90;;;;;;5052568;28;19909;-69
2023/03/21 06:43:23;;;;;;;;;;;9.80;99.90;;;;;;5052952;28;19913;-69
2023/03/21 06:45:49;;;;;;;;;;;9.90;99.90;;;;;;5052980;28;20008;-69
2023/03/21 06:48:14;;;;;;;;;;;10.00;99.90;;;;;;5052956;28;19970;-69
2023/03/21 06:50:40;;;;;;;;;;;10.00;99.90;;;;;;5052470;28;20355;-69
2023/03/21 06:53:06;;;;;;;;;;;10.10;99.90;;;;;;5052384;28;20007;-69
2023/03/21 06:55:31;;;;;;;;;;;10.20;99.90;;;;;;5052597;28;19941;-70
2023/03/21 06:57:58;;;;;;;;;;;10.20;99.90;;;;;;5052637;28;19920;-70
2023/03/21 07:00:24;;;;;;;;;;;10.30;99.90;;;;;;5052205;28;19908;-70
2023/03/21 07:02:49;;;;;;;;;;;10.40;99.90;;;;;;5052247;28;19915;-70
2023/03/21 07:05:15;;;;;;;;;;;10.50;99.90;;;;;;5052462;28;19913;-70
2023/03/21 07:07:41;;;;;;;;;;;10.60;99.90;;;;;;5052461;28;19908;-70
2023/03/21 07:10:07;;;;;;;;;;;10.80;99.90;;;;;;5052428;28;19913;-70
2023/03/21 07:12:34;;;;;;;;;;;10.90;99.90;;;;;;5051967;28;20266;-69
2023/03/21 07:15:03;;;;;;;;;;;10.90;99.90;;;;;;5052557;28;20371;-70
2023/03/21 07:17:29;;;;;;;;;;;11.00;99.90;;;;;;5052199;28;19909;-70
2023/03/21 07:19:55;;;;;;;;;;;11.00;99.90;;;;;;5052740;28;19939;-69
2023/03/21 07:22:20;;;;;;;;;;;11.10;99.90;;;;;;5051847;28;19920;-70
2023/03/21 07:24:49;;;;;;;;;;;11.20;99.90;;;;;;5052611;28;19958;-69
2023/03/21 07:27:15;;;;;;;;;;;11.30;99.90;;;;;;5052499;28;19909;-69
2023/03/21 07:29:40;;;;;;;;;;;11.40;99.90;;;;;;5052047;28;19915;-70
2023/03/21 07:32:06;;;;;;;;;;;11.40;99.90;;;;;;5051667;28;20339;-70
2023/03/21 07:34:32;;;;;;;;;;;11.50;99.90;;;;;;5052318;28;19916;-70
2023/03/21 07:36:58;;;;;;;;;;;11.40;99.90;;;;;;5051931;28;19931;-70
2023/03/21 07:39:24;;;;;;;;;;;11.40;99.90;;;;;;5051868;28;20318;-70
2023/03/21 07:41:50;;;;;;;;;;;11.50;99.90;;;;;;5051713;28;19909;-70
2023/03/21 07:44:16;;;;;;;;;;;11.50;99.90;;;;;;5052075;28;20381;-70
2023/03/21 07:46:41;;;;;;;;;;;11.50;99.90;;;;;;5051422;28;20011;-70
2023/03/21 07:49:07;;;;;;;;;;;11.50;99.90;;;;;;5051812;28;19909;-70
2023/03/21 07:51:34;;;;;;;;;;;11.60;99.90;;;;;;5050779;28;19959;-70
2023/03/21 07:54:00;;;;;;;;;;;11.70;99.90;;;;;;5050471;28;19954;-70
2023/03/21 07:56:27;;;;;;;;;;;11.80;99.90;;;;;;5050167;28;19936;-69
2023/03/21 07:58:52;;;;;;;;;;;11.90;99.90;;;;;;5050114;28;20322;-70
2023/03/21 08:01:18;;;;;;;;;;;11.90;99.90;;;;;;5049903;28;19963;-70
2023/03/21 08:03:44;;;;;;;;;;;12.00;99.90;;;;;;5051973;28;19908;-70
2023/03/21 08:06:09;;;;;;;;;;;12.10;99.90;;;;;;5053805;28;19994;-70
2023/03/21 08:08:35;;;;;;;;;;;12.10;99.90;;;;;;5053635;28;19999;-70
2023/03/21 08:11:02;;;;;;;;;;;12.10;99.90;;;;;;5053159;28;20404;-70
2023/03/21 08:13:28;;;;;;;;;;;12.20;99.90;;;;;;5053518;28;20004;-70
2023/03/21 08:15:53;;;;;;;;;;;12.20;99.90;;;;;;5053500;28;20011;-70
2023/03/21 08:18:19;;;;;;;;;;;12.20;99.90;;;;;;5052101;28;19912;-70
2023/03/21 08:20:45;;;;;;;;;;;12.30;99.90;;;;;;5053116;28;19970;-70
2023/03/21 08:23:12;;;;;;;;;;;12.30;99.90;;;;;;5053231;28;19920;-70
2023/03/21 08:25:38;;;;;;;;;;;12.40;99.90;;;;;;5053693;28;19949;-70
2023/03/21 08:28:04;;;;;;;;;;;12.40;99.90;;;;;;5053659;28;20329;-70
2023/03/21 08:30:29;;;;;;;;;;;12.40;99.90;;;;;;5053057;28;19913;-70
2023/03/21 08:32:59;;;;;;;;;;;12.50;99.90;;;;;;5053252;28;19949;-71
2023/03/21 08:35:25;;;;;;;;;;;12.50;99.90;;;;;;5054860;28;20011;-74
2023/03/21 08:37:50;;;;;;;;;;;12.50;99.90;;;;;;5054499;28;19944;-70
2023/03/21 08:40:17;;;;;;;;;;;12.60;99.90;;;;;;5054630;28;19935;-70
2023/03/21 08:42:43;;;;;;;;;;;12.60;99.90;;;;;;5054959;28;19917;-70
2023/03/21 08:45:10;;;;;;;;;;;12.60;99.90;;;;;;5055570;28;19916;-70
2023/03/21 08:47:35;;;;;;;;;;;12.60;99.90;;;;;;5054945;28;19920;-70
2023/03/21 08:50:01;;;;;;;;;;;12.60;99.90;;;;;;5054609;28;19909;-70
2023/03/21 08:52:27;;;;;;;;;;;12.60;99.90;;;;;;5054255;28;20039;-70
2023/03/21 08:54:53;;;;;;;;;;;12.50;99.90;;;;;;5048684;28;19953;-70
2023/03/21 08:57:19;;;;;;;;;;;12.60;99.90;;;;;;5054214;28;20325;-70
2023/03/21 08:59:44;;;;;;;;;;;12.50;99.90;;;;;;5054830;28;20082;-70
2023/03/21 09:02:14;;;;;;;;;;;12.50;99.90;;;;;;5054381;28;19909;-71
2023/03/21 09:04:40;;;;;;;;;;;12.60;99.90;;;;;;5054903;28;19940;-71
2023/03/21 09:07:06;;;;;;;;;;;12.60;99.90;;;;;;5054733;28;20037;-70
2023/03/21 09:09:31;;;;;;;;;;;12.60;99.90;;;;;;5050616;28;19916;-70
2023/03/21 09:11:57;;;;;;;;;;;12.60;99.90;;;;;;5054265;28;19957;-70
2023/03/21 09:14:23;;;;;;;;;;;12.70;99.90;;;;;;5054214;28;20370;-70
2023/03/21 09:16:49;;;;;;;;;;;12.70;99.90;;;;;;5054027;28;19977;-68
2023/03/21 09:19:16;;;;;;;;;;;12.70;99.90;;;;;;5053569;28;19909;-68
2023/03/21 09:21:43;;;;;;;;;;;12.70;99.90;;;;;;5052987;28;19913;-68
2023/03/21 09:24:11;;;;;;;;;;;12.70;99.90;;;;;;5050064;28;19980;-66
2023/03/21 09:26:37;;;;;;;;;;;12.80;99.90;;;;;;5047407;28;19913;-67
2023/03/21 09:29:04;;;;;;;;;;;12.80;99.90;;;;;;5052991;28;19970;-65
2023/03/21 09:31:31;;;;;;;;;;;12.80;99.90;;;;;;5052866;28;19931;-66
2023/03/21 09:33:57;;;;;;;;;;;12.70;99.90;;;;;;5052652;28;19916;-66
2023/03/21 09:36:26;;;;;;;;;;;12.70;99.90;;;;;;5052768;28;19996;-65
2023/03/21 09:38:52;;;;;;;;;;;12.70;99.90;;;;;;5045576;28;20610;-66
2023/03/21 09:41:27;;;;;;;;;;;12.80;99.90;;;;;;5044234;28;20371;-65
2023/03/21 09:43:59;;;;;;;;;;;12.80;99.90;;;;;;5052440;28;19958;-66
2023/03/21 09:46:25;;;;;;;;;;;12.80;99.90;;;;;;5053006;28;19931;-67
2023/03/21 09:49:08;;;;;;;;;;;12.90;99.90;;;;;;5052860;28;19940;-66
2023/03/21 09:51:35;;;;;;;;;;;12.80;99.90;;;;;;5044598;28;20375;-66
2023/03/21 09:54:06;;;;;;;;;;;12.90;99.90;;;;;;5049402;28;19958;-67
2023/03/21 09:56:32;;;;;;;;;;;12.90;99.90;;;;;;5052186;28;19964;-66
2023/03/21 09:58:59;;;;;;;;;;;12.90;99.90;;;;;;5050580;28;19909;-66
2023/03/21 10:01:33;;;;;;;;;;;13.00;99.90;;;;;;5050514;28;19915;-66
2023/03/21 10:04:00;;;;;;;;;;;13.10;99.90;;;;;;5046156;28;20016;-65
2023/03/21 10:06:28;;;;;;;;;;;13.20;99.90;;;;;;5054468;28;20008;-66
2023/03/21 10:08:56;;;;;;;;;;;13.20;99.90;;;;;;5058927;28;19919;-66
2023/03/21 10:11:27;;;;;;;;;;;13.30;99.90;;;;;;5057761;28;20003;-66
2023/03/21 10:13:55;;;;;;;;;;;13.40;99.90;;;;;;5058790;28;19916;-66
2023/03/21 10:16:29;;;;;;;;;;;13.40;99.90;;;;;;5060076;28;19920;-66
2023/03/21 10:18:56;;;;;;;;;;;13.40;99.90;;;;;;5057728;28;19908;-68
2023/03/21 10:21:23;;;;;;;;;;;13.50;99.90;;;;;;5061928;28;20012;-66
2023/03/21 10:23:50;;;;;;;;;;;13.60;99.90;;;;;;5057064;28;19917;-69
2023/03/21 10:26:17;;;;;;;;;;;13.70;99.90;;;;;;5053411;28;19909;-66
2023/03/21 10:28:45;;;;;;;;;;;13.80;99.90;;;;;;5060030;28;20301;-66
2023/03/21 10:31:15;;;;;;;;;;;13.80;99.90;;;;;;5055296;28;19915;-67
2023/03/21 10:33:46;;;;;;;;;;;13.90;99.90;;;;;;5057661;28;19912;-67
2023/03/21 10:36:16;;;;;;;;;;;13.90;99.90;;;;;;5062704;28;20417;-67
2023/03/21 10:38:47;;;;;;;;;;;14.00;99.90;;;;;;5056644;28;19913;-65
2023/03/21 10:41:13;;;;;;;;;;;14.10;99.90;;;;;;5059889;28;19920;-67
2023/03/21 10:43:40;;;;;;;;;;;14.30;99.90;;;;;;5060398;28;20437;-65
2023/03/21 10:46:07;;;;;;;;;;;14.30;99.90;;;;;;5062599;28;19913;-66
2023/03/21 10:48:37;;;;;;;;;;;14.30;99.90;;;;;;5053654;28;20003;-67
2023/03/21 10:51:04;;;;;;;;;;;14.30;99.90;;;;;;5050324;28;19979;-65
2023/03/21 10:53:40;;;;;;;;;;;14.40;99.90;;;;;;5049122;28;19956;-67
2023/03/21 10:56:10;;;;;;;;;;;14.40;99.90;;;;;;5047931;28;19971;-66
2023/03/21 10:58:45;;;;;;;;;;;14.40;99.90;;;;;;5046124;28;19909;-66
2023/03/21 11:01:24;;;;;;;;;;;14.40;99.90;;;;;;5078054;28;20015;-67
2023/03/21 11:03:54;;;;;;;;;;;14.50;99.90;;;;;;5052401;28;20301;-67
2023/03/21 11:06:20;;;;;;;;;;;14.60;99.90;;;;;;5052512;28;19916;-67
2023/03/21 11:08:47;;;;;;;;;;;14.60;99.90;;;;;;5051972;28;20294;-67
2023/03/21 11:11:21;;;;;;;;;;;14.60;99.90;;;;;;5051547;28;19920;-68
2023/03/21 11:13:53;;;;;;;;;;;14.60;99.90;;;;;;5052012;28;20404;-67
2023/03/21 11:16:24;;;;;;;;;;;14.70;99.90;;;;;;5051822;28;20014;-66
2023/03/21 11:18:51;;;;;;;;;;;14.80;99.90;;;;;;5052427;28;19931;-67
2023/03/21 11:21:17;;;;;;;;;;;14.80;99.90;;;;;;5048582;28;19971;-66
2023/03/21 11:23:45;;;;;;;;;;;14.80;99.90;;;;;;5049468;28;19966;-67
2023/03/21 11:26:16;;;;;;;;;;;14.90;99.90;;;;;;5049028;28;19916;-67
2023/03/21 11:28:43;;;;;;;;;;;14.90;99.90;;;;;;5050963;28;20385;-66
2023/03/21 11:31:09;;;;;;;;;;;15.00;99.90;;;;;;5047546;28;19976;-68
2023/03/21 11:33:40;;;;;;;;;;;15.00;99.90;;;;;;5054453;28;20406;-67
2023/03/21 11:36:06;;;;;;;;;;;15.20;99.90;;;;;;5055689;28;19952;-67
2023/03/21 11:38:36;;;;;;;;;;;15.20;99.90;;;;;;5051437;28;19970;-67
2023/03/21 11:41:03;;;;;;;;;;;15.30;99.90;;;;;;5052678;28;19920;-67
2023/03/21 11:43:31;;;;;;;;;;;15.40;99.90;;;;;;5051335;28;19932;-67
2023/03/21 11:46:00;;;;;;;;;;;15.60;99.90;;;;;;5049491;28;19971;-67
2023/03/21 11:48:26;;;;;;;;;;;15.60;99.90;;;;;;5049438;28;19940;-66
2023/03/21 11:50:57;;;;;;;;;;;15.60;99.90;;;;;;5049699;28;19991;-67
2023/03/21 11:53:31;;;;;;;;;;;15.60;99.90;;;;;;5048487;28;19939;-67
2023/03/21 11:56:14;;;;;;;;;;;15.80;99.90;;;;;;5052810;28;19917;-67
2023/03/21 11:59:00;;;;;;;;;;;15.70;99.90;;;;;;5045654;28;19920;-67
2023/03/21 12:01:28;;;;;;;;;;;15.80;99.90;;;;;;5050709;28;19952;-66
2023/03/21 12:04:01;;;;;;;;;;;15.70;99.90;;;;;;5053557;28;19995;-67
2023/03/21 12:06:39;;;;;;;;;;;15.80;99.90;;;;;;5050865;28;20401;-67
2023/03/21 12:09:17;;;;;;;;;;;15.70;99.90;;;;;;5053978;28;19912;-66
2023/03/21 12:11:57;;;;;;;;;;;15.70;99.90;;;;;;5053588;28;20050;-68
2023/03/21 12:14:35;;;;;;;;;;;15.60;99.90;;;;;;5053928;28;19991;-70
2023/03/21 12:17:19;;;;;;;;;;;15.70;99.90;;;;;;5051320;28;20002;-68
2023/03/21 12:19:45;;;;;;;;;;;15.70;99.90;;;;;;5045125;28;19920;-68
2023/03/21 12:22:27;;;;;;;;;;;15.60;99.90;;;;;;5084744;28;20382;-66
2023/03/21 12:24:54;;;;;;;;;;;15.60;99.90;;;;;;5052239;28;19908;-67
2023/03/21 12:27:20;;;;;;;;;;;15.70;99.90;;;;;;5052948;28;19913;-65
2023/03/21 12:29:59;;;;;;;;;;;15.60;99.90;;;;;;5053527;28;19909;-68
2023/03/21 12:32:40;;;;;;;;;;;15.60;99.90;;;;;;5053875;28;20394;-67
2023/03/21 12:35:06;;;;;;;;;;;15.60;99.90;;;;;;5084681;28;20302;-68
2023/03/21 12:37:40;;;;;;;;;;;15.60;99.90;;;;;;5054023;28;19913;-67
2023/03/21 12:40:35;;;;;;;;;;;15.60;99.90;;;;;;5050151;28;19913;-71
2023/03/21 12:43:00;;;;;;;;;;;15.60;99.90;;;;;;5034151;28;19913;-66
2023/03/21 12:45:30;;;;;;;;;;;15.70;99.90;;;;;;5046841;28;19936;-67
2023/03/21 12:48:00;;;;;;;;;;;15.70;99.90;;;;;;5052023;28;19966;-67
2023/03/21 12:50:31;;;;;;;;;;;15.60;99.90;;;;;;5053796;28;19909;-67
2023/03/21 12:53:00;;;;;;;;;;;15.60;99.90;;;;;;5056820;28;20401;-67
2023/03/21 12:55:28;;;;;;;;;;;15.70;99.90;;;;;;5054817;28;19924;-67
2023/03/21 12:58:10;;;;;;;;;;;15.70;99.90;;;;;;5054283;28;20023;-67
2023/03/21 13:00:39;;;;;;;;;;;15.70;99.90;;;;;;5048109;28;20272;-67
2023/03/21 13:03:20;;;;;;;;;;;15.70;99.90;;;;;;5056221;28;20611;-70
2023/03/21 13:05:54;;;;;;;;;;;15.70;99.90;;;;;;5055556;28;19915;-67
2023/03/21 13:08:29;;;;;;;;;;;15.60;99.90;;;;;;5057187;28;19938;-66
2023/03/21 13:10:55;;;;;;;;;;;15.60;99.90;;;;;;5051409;28;20000;-67
2023/03/21 13:13:24;;;;;;;;;;;15.60;99.90;;;;;;5056805;28;19947;-67
2023/03/21 13:16:05;;;;;;;;;;;15.60;99.90;;;;;;5055418;28;19931;-68
2023/03/21 13:18:43;;;;;;;;;;;15.50;99.90;;;;;;5055952;28;19917;-67
2023/03/21 13:21:09;;;;;;;;;;;15.60;99.90;;;;;;5055466;28;19916;-67
2023/03/21 13:23:36;;;;;;;;;;;15.60;99.90;;;;;;5054820;28;20286;-67
2023/03/21 13:26:02;;;;;;;;;;;15.60;99.90;;;;;;5055282;28;19999;-67
2023/03/21 13:28:29;;;;;;;;;;;15.60;99.90;;;;;;5053052;28;20527;-66
2023/03/21 13:31:13;;;;;;;;;;;15.70;99.90;;;;;;5049858;28;19944;-67
2023/03/21 13:33:43;;;;;;;;;;;15.70;99.90;;;;;;5045218;28;19912;-69
2023/03/21 13:36:12;;;;;;;;;;;15.70;99.90;;;;;;5048743;28;19916;-67
2023/03/21 13:38:41;;;;;;;;;;;15.70;99.90;;;;;;5046010;28;19909;-67
2023/03/21 13:41:07;;;;;;;;;;;15.70;99.90;;;;;;5050391;28;19913;-66
2023/03/21 13:43:51;;;;;;;;;;;15.70;99.90;;;;;;5047708;28;19936;-66
2023/03/21 13:46:29;;;;;;;;;;;15.70;99.90;;;;;;5043620;28;19916;-67
2023/03/21 13:49:12;;;;;;;;;;;15.70;99.90;;;;;;5051982;28;19999;-66
2023/03/21 13:51:45;;;;;;;;;;;15.70;99.90;;;;;;5045515;28;20019;-67
2023/03/21 13:54:13;;;;;;;;;;;15.80;99.90;;;;;;5047884;28;19917;-67
2023/03/21 13:56:45;;;;;;;;;;;15.90;99.90;;;;;;5049608;28;19956;-67
2023/03/21 13:59:12;;;;;;;;;;;15.90;99.90;;;;;;5046841;28;19924;-67
2023/03/21 14:01:40;;;;;;;;;;;15.90;99.90;;;;;;5048762;28;20004;-67
2023/03/21 14:04:10;;;;;;;;;;;16.00;99.90;;;;;;5050407;28;20370;-65
2023/03/21 14:06:54;;;;;;;;;;;16.00;99.90;;;;;;5044816;28;19909;-67
2023/03/21 14:09:23;;;;;;;;;;;16.00;99.90;;;;;;5051971;28;19920;-67
2023/03/21 14:11:51;;;;;;;;;;;16.10;99.90;;;;;;5051593;28;19951;-66
2023/03/21 14:14:18;;;;;;;;;;;16.30;99.90;;;;;;5049027;28;20381;-67
2023/03/21 14:16:44;;;;;;;;;;;16.30;99.90;;;;;;5052023;28;19920;-65
2023/03/21 14:19:10;;;;;;;;;;;16.30;99.90;;;;;;5050774;28;19913;-66
2023/03/21 14:21:36;;;;;;;;;;;16.30;99.90;;;;;;5051496;28;20391;-67
2023/03/21 14:24:06;;;;;;;;;;;16.30;99.90;;;;;;5050256;28;19936;-67
2023/03/21 14:26:33;;;;;;;;;;;16.30;99.90;;;;;;5048957;28;19912;-67
2023/03/21 14:29:00;;;;;;;;;;;16.40;99.90;;;;;;5051990;28;19996;-67
2023/03/21 14:31:26;;;;;;;;;;;16.50;99.90;;;;;;5049627;28;19920;-66
2023/03/21 14:33:55;;;;;;;;;;;16.50;99.90;;;;;;5051937;28;19913;-67
2023/03/21 14:36:31;;;;;;;;;;;16.60;99.90;;;;;;5052423;28;20012;-70